Detall de PIREP

Printer-friendly versionPDF version

[2010/01/28 08:01:00]
Flight IATA:CT2110
Pilot Number:041
Company ICAO:CAT
Aircraft Type:F50/A
PAX:30
Departing Airport: LEVC
Destination Airport: LEST
Alternate Airport:LECO
Online: VATSIM
Route:CENTA2A A33 PRADO A33 CJN A33 HORTA A33 MAGIN A33 INDEG A33 DISKO A33 ZMR A33 BARKO1G
Flight Level:FL190
No Slew and time accel
No pause
Crash detect
Detect pilot in Cockpit between each 30 and 45 minutes
08:01 Zero fuel Weight: 35102 Lbs, Fuel Weight: 4898 Lbs
08:01 VATSIM:LEVC 280730Z 28005KT CAVOK 01/M01 Q1017 NOSIG
08:01 VATSIM:LEST 280730Z 05004KT 020V080 7000 NSC 01/M01 Q1026 NOSIG
08:02 VOICE CATALONIAN
08:03 Parking Brakes off
08:14 Take-off
08:14 Take off Weight: 39888 Lbs
08:14 Wind: 253º @ 003 Knots Heading: 295º
08:14 POS N39º 29´ 22´´ W000º 28´ 55´´
08:15 Gear Up: 155 Knots
08:15 Flaps:1 at 155 Knots
08:15 Flaps:0 at 157 Knots
08:30 Wind:306º@008 Knots Head
ing: 299º Ground Speed: 207 Knots Altitude 13297 ft
08:34 TOC
08:34 Fuel Weight: 4058 Lb
08:45 Wind:073º@035 Knots Heading: 302º Ground Speed: 285 Knots Altitude 19206 ft
09:00 Wind:074º@043 Knots Heading: 302º Ground Speed: 290 Knots Altitude 19206 ft
09:15 Wind:061º@062 Knots Heading: 306º Ground Speed: 286 Knots Altitude 19261 ft
09:19 TOD
09:19 Fuel Weight: 2750 Lb
09:30 Wind:071º@019 Knots Heading: 307º Ground Speed: 260 Knots Altitude 9235 ft
09:45 Wind:063º@026 Knots Heading: 342º Ground Speed: 198 Knots Altitude 5508 ft
09:51 Flaps:1 at 178 Knots
09:51 Flaps:2 at 170 Knots
09:51 Gear Down: 147 Knots
09:53 Flaps:3 at 156 Knots
09:53 Flaps:4 at 121 Knots
09:53 Flaps:5 at 117 Knots
09:53 Flaps:6 at 108 Knots
09:54 TouchDown:Rate -436 ft/min Speed: 90 Knots
09:55 VATSIM:LEST 280930Z 09005KT 060V130 8000 NSC 03/00 Q1026 NOSIG
09:55 Land
09:55 Wind:104º@0
04 Knots
09:55 Heading: 346º
09:55 Flight Duration: 01:41
09:55 Landing Weight: 36992 Lbs
09:55 POS N42º 53´ 23´´ W008º 24´ 46´´
09:57 Parking brakes on
09:57 Block to Block Duration: 01:54
09:57 Final Fuel: 1865 Lbls
09:57 Spent Fuel: 3033 Lbls
09:57 Flight Length: 420 NM
09:57 TOD Land Length: 142 NM

Exportar CSV

Powered by Drupal - Modified by Danger4k